Time;durP1;ratioP1;P1;durP2;ratioP2;P2;SDS_P1;SDS_P2;PMS_P1;PMS_P2;Temp;Humidity;BMP_temperature;BMP_pressure;BME280_temperature;BME280_humidity;BME280_pressure;Samples;Min_cycle;Max_cycle;Signal;HPM_P1;HPM_P2
2023/05/24 00:01:13;;;;;;;4.87;2.40;;;10.00;99.90;;;;;;5030174;28;20557;-73
2023/05/24 00:03:39;;;;;;;8.30;3.20;;;10.10;99.90;;;;;;5047811;28;20181;-73
2023/05/24 00:06:05;;;;;;;5.03;2.33;;;10.20;99.90;;;;;;5048037;28;20448;-73
2023/05/24 00:08:32;;;;;;;8.00;3.40;;;10.20;99.90;;;;;;5013221;28;20209;-73
2023/05/24 00:10:58;;;;;;;8.60;2.53;;;10.10;99.90;;;;;;5022599;28;20408;-73
2023/05/24 00:13:24;;;;;;;9.13;2.50;;;10.00;99.90;;;;;;5047474;28;20513;-73
2023/05/24 00:15:50;;;;;;;6.70;3.07;;;9.90;99.90;;;;;;5048149;28;21004;-73
2023/05/24 00:18:18;;;;;;;8.40;2.47;;;9.90;99.90;;;;;;5047519;28;20654;-73
2023/05/24 00:20:44;;;;;;;6.53;2.03;;;9.80;99.90;;;;;;5047720;28;20209;-73
2023/05/24 00:23:10;;;;;;;4.57;3.00;;;9.80;99.90;;;;;;5047429;28;20959;-73
2023/05/24 00:25:36;;;;;;;9.30;2.97;;;9.80;99.90;;;;;;5047993;28;20439;-73
2023/05/24 00:28:01;;;;;;;10.23;2.50;;;9.70;99.90;;;;;;5047766;28;20645;-73
2023/05/24 00:30:27;;;;;;;14.13;3.30;;;9.80;99.90;;;;;;5047713;28;20185;-73
2023/05/24 00:32:53;;;;;;;12.40;2.90;;;9.80;99.90;;;;;;5047586;28;20183;-73
2023/05/24 00:35:19;;;;;;;5.63;2.40;;;9.80;99.90;;;;;;5051493;28;20665;-73
2023/05/24 00:37:45;;;;;;;6.47;2.70;;;9.80;99.90;;;;;;5051045;28;20435;-73
2023/05/24 00:40:11;;;;;;;7.67;2.37;;;9.70;99.90;;;;;;5029388;28;20719;-73
2023/05/24 00:42:37;;;;;;;9.47;2.57;;;9.70;99.90;;;;;;5031644;28;20467;-73
2023/05/24 00:45:03;;;;;;;9.73;2.70;;;9.60;99.90;;;;;;5031405;28;20412;-73
2023/05/24 00:47:29;;;;;;;10.60;2.60;;;9.50;99.90;;;;;;5013808;28;20441;-73
2023/05/24 00:49:55;;;;;;;6.67;2.10;;;9.40;99.90;;;;;;5031418;28;20460;-73
2023/05/24 00:52:21;;;;;;;5.37;2.17;;;9.30;99.90;;;;;;5014004;28;20548;-73
2023/05/24 00:54:47;;;;;;;7.30;2.60;;;9.30;99.90;;;;;;5031490;28;20463;-73
2023/05/24 00:57:13;;;;;;;8.13;2.90;;;9.20;99.90;;;;;;5031313;28;20509;-73
2023/05/24 00:59:40;;;;;;;6.70;2.60;;;9.20;99.90;;;;;;5030168;28;20413;-73
2023/05/24 01:02:06;;;;;;;8.07;3.00;;;9.20;99.90;;;;;;5031493;28;20421;-73
2023/05/24 01:04:32;;;;;;;7.00;2.30;;;9.10;99.90;;;;;;5030121;28;20409;-73
2023/05/24 01:07:16;;;;;;;6.80;2.77;;;9.10;99.90;;;;;;5013519;28;20209;-73
2023/05/24 01:09:48;;;;;;;5.57;2.00;;;9.10;99.90;;;;;;5031397;28;20456;-74
2023/05/24 01:12:40;;;;;;;6.13;2.40;;;9.00;99.90;;;;;;5031589;28;20419;-73
2023/05/24 01:15:30;;;;;;;4.87;3.50;;;8.90;99.90;;;;;;5013383;28;20441;-73
2023/05/24 01:18:00;;;;;;;8.10;2.50;;;8.90;99.90;;;;;;5029938;28;21212;-73
2023/05/24 01:20:30;;;;;;;6.20;3.00;;;8.70;99.90;;;;;;5030957;28;20421;-73
2023/05/24 01:23:23;;;;;;;8.80;2.70;;;8.60;99.90;;;;;;5038223;28;20420;-73
2023/05/24 01:25:51;;;;;;;3.10;2.27;;;8.60;99.90;;;;;;5033572;28;20942;-73
2023/05/24 01:28:19;;;;;;;7.63;2.43;;;8.60;99.90;;;;;;5032660;28;20444;-73
2023/05/24 01:30:45;;;;;;;5.37;3.13;;;8.70;99.90;;;;;;5050762;28;20561;-73
2023/05/24 01:33:11;;;;;;;7.17;3.03;;;8.60;99.90;;;;;;5050441;28;20416;-73
2023/05/24 01:35:40;;;;;;;9.40;2.87;;;8.60;99.90;;;;;;5032768;28;20444;-73
2023/05/24 01:38:06;;;;;;;5.03;2.57;;;8.70;99.90;;;;;;5050787;28;20177;-73
2023/05/24 01:40:32;;;;;;;4.53;3.00;;;8.60;99.90;;;;;;5049938;28;20828;-73
2023/05/24 01:43:29;;;;;;;8.10;3.03;;;8.50;99.90;;;;;;5032556;28;20420;-73
2023/05/24 01:46:29;;;;;;;5.07;2.40;;;8.50;99.90;;;;;;5049161;28;20475;-73
2023/05/24 01:49:28;;;;;;;8.23;2.10;;;8.50;99.90;;;;;;5039148;28;20471;-73
2023/05/24 01:52:02;;;;;;;5.63;2.40;;;8.50;99.90;;;;;;5032701;28;20404;-73
2023/05/24 01:54:32;;;;;;;5.93;2.33;;;8.50;99.90;;;;;;5050252;28;20432;-73
2023/05/24 01:56:59;;;;;;;6.13;2.33;;;8.60;99.90;;;;;;5050083;28;20420;-73
2023/05/24 01:59:27;;;;;;;6.80;1.90;;;8.60;99.90;;;;;;5032060;28;20975;-73
2023/05/24 02:01:53;;;;;;;5.13;3.07;;;8.50;99.90;;;;;;5050273;28;20491;-73
2023/05/24 02:04:19;;;;;;;6.87;2.83;;;8.30;99.90;;;;;;5049142;28;20834;-73
2023/05/24 02:06:45;;;;;;;7.23;2.70;;;8.20;99.90;;;;;;5049818;28;20489;-73
2023/05/24 02:09:10;;;;;;;7.97;2.97;;;8.30;99.90;;;;;;5049956;28;20255;-73
2023/05/24 02:11:36;;;;;;;5.70;2.60;;;8.20;99.90;;;;;;5049808;28;20181;-73
2023/05/24 02:14:02;;;;;;;10.60;3.57;;;8.10;99.90;;;;;;5049777;28;20181;-73
2023/05/24 02:16:29;;;;;;;5.83;2.57;;;8.00;99.90;;;;;;5049923;28;20205;-73
2023/05/24 02:18:55;;;;;;;6.60;2.70;;;8.00;99.90;;;;;;5049573;28;20277;-73
2023/05/24 02:21:23;;;;;;;7.70;2.97;;;8.00;99.90;;;;;;5049687;28;20499;-73
2023/05/24 02:23:48;;;;;;;6.53;3.43;;;8.00;99.90;;;;;;5049558;28;20515;-73
2023/05/24 02:26:16;;;;;;;7.57;2.80;;;8.00;99.90;;;;;;5049627;28;20527;-74
2023/05/24 02:28:42;;;;;;;5.40;2.90;;;7.90;99.90;;;;;;5031381;28;20214;-73
2023/05/24 02:31:08;;;;;;;6.63;2.83;;;7.80;99.90;;;;;;5031426;28;20761;-73
2023/05/24 02:33:34;;;;;;;5.10;2.40;;;7.80;99.90;;;;;;5049215;28;20412;-73
2023/05/24 02:36:00;;;;;;;5.50;2.60;;;7.80;99.90;;;;;;5049421;28;20343;-73
2023/05/24 02:38:26;;;;;;;10.33;4.07;;;7.70;99.90;;;;;;5049464;28;20754;-73
2023/05/24 02:40:51;;;;;;;4.17;2.70;;;7.70;99.90;;;;;;5049211;28;20419;-73
2023/05/24 02:43:17;;;;;;;10.43;2.77;;;7.70;99.90;;;;;;5048800;28;20178;-73
2023/05/24 02:45:43;;;;;;;6.30;3.30;;;7.70;99.90;;;;;;5031053;28;20193;-73
2023/05/24 02:48:08;;;;;;;11.27;3.80;;;7.80;99.90;;;;;;5031021;28;20212;-73
2023/05/24 02:50:35;;;;;;;6.57;4.00;;;7.80;99.90;;;;;;5031414;28;20804;-73
2023/05/24 02:53:01;;;;;;;11.90;5.20;;;7.80;99.90;;;;;;5049182;28;20178;-73
2023/05/24 02:55:28;;;;;;;12.80;6.80;;;7.90;99.90;;;;;;5048893;28;20420;-73
2023/05/24 02:57:54;;;;;;;12.77;6.43;;;8.00;99.90;;;;;;5048740;28;20503;-73
2023/05/24 03:00:20;;;;;;;11.73;5.50;;;8.00;99.90;;;;;;5048815;28;20495;-73
2023/05/24 03:02:46;;;;;;;10.93;4.83;;;8.10;99.90;;;;;;5031116;28;20558;-73
2023/05/24 03:05:12;;;;;;;11.00;4.30;;;8.20;99.90;;;;;;5048852;28;20695;-73
2023/05/24 03:07:38;;;;;;;12.80;5.23;;;8.30;99.90;;;;;;5048636;28;20659;-73
2023/05/24 03:10:04;;;;;;;13.33;4.73;;;8.30;99.90;;;;;;5048708;28;20425;-73
2023/05/24 03:12:29;;;;;;;13.83;4.40;;;8.40;99.90;;;;;;5048864;28;20182;-73
2023/05/24 03:14:55;;;;;;;13.80;4.33;;;8.40;99.90;;;;;;5048724;28;20419;-73
2023/05/24 03:17:21;;;;;;;8.80;4.00;;;8.40;99.90;;;;;;5048615;28;20456;-73
2023/05/24 03:19:47;;;;;;;14.53;4.63;;;8.40;99.90;;;;;;5048443;28;20177;-73
2023/05/24 03:22:12;;;;;;;15.27;4.47;;;8.50;99.90;;;;;;5030721;28;20193;-73
2023/05/24 03:24:38;;;;;;;9.83;4.27;;;8.50;99.90;;;;;;5030630;28;20188;-73
2023/05/24 03:27:05;;;;;;;11.60;4.00;;;8.40;99.90;;;;;;5048257;28;20224;-73
2023/05/24 03:29:31;;;;;;;6.90;3.70;;;8.40;99.90;;;;;;5048435;28;20455;-73
2023/05/24 03:31:57;;;;;;;9.70;4.47;;;8.40;99.90;;;;;;5030724;28;20413;-73
2023/05/24 03:34:22;;;;;;;11.70;4.60;;;8.40;99.90;;;;;;5030433;28;20607;-73
2023/05/24 03:36:48;;;;;;;8.97;4.80;;;8.30;99.90;;;;;;5048231;28;20193;-73
2023/05/24 03:39:14;;;;;;;10.93;4.70;;;8.20;99.90;;;;;;5047056;28;20542;-73
2023/05/24 03:41:39;;;;;;;7.27;4.23;;;8.20;99.90;;;;;;5030479;28;20256;-73
2023/05/24 03:44:05;;;;;;;8.53;4.50;;;8.20;99.90;;;;;;5048175;28;20185;-73
2023/05/24 03:46:31;;;;;;;7.70;4.27;;;8.10;99.90;;;;;;5048259;28;20217;-73
2023/05/24 03:48:56;;;;;;;13.87;4.90;;;8.00;99.90;;;;;;5048140;28;20288;-73
2023/05/24 03:51:28;;;;;;;12.30;4.60;;;8.10;99.90;;;;;;5030241;28;20260;-73
2023/05/24 03:53:55;;;;;;;7.03;4.50;;;8.20;99.90;;;;;;5048367;28;20264;-73
2023/05/24 03:56:21;;;;;;;12.43;3.93;;;8.20;99.90;;;;;;5048152;28;20614;-73
2023/05/24 03:58:46;;;;;;;9.53;6.03;;;8.30;99.90;;;;;;5048225;28;20416;-73
2023/05/24 04:01:12;;;;;;;10.10;5.90;;;8.30;99.90;;;;;;5048075;28;20416;-73
2023/05/24 04:03:39;;;;;;;10.67;5.40;;;8.30;99.90;;;;;;5048071;28;20201;-73
2023/05/24 04:06:05;;;;;;;10.93;5.07;;;8.20;99.90;;;;;;5048229;28;20649;-73
2023/05/24 04:08:30;;;;;;;15.17;5.43;;;8.20;99.90;;;;;;5048913;28;20517;-73
2023/05/24 04:10:56;;;;;;;8.10;5.60;;;8.10;99.90;;;;;;5051931;28;20439;-73
2023/05/24 04:13:22;;;;;;;13.50;7.23;;;8.20;99.90;;;;;;5051984;28;20185;-73
2023/05/24 04:15:48;;;;;;;10.07;6.40;;;8.20;99.90;;;;;;5052003;28;20212;-73
2023/05/24 04:18:13;;;;;;;12.40;6.47;;;8.20;99.90;;;;;;5034049;28;20190;-73
2023/05/24 04:20:40;;;;;;;12.73;5.17;;;8.20;99.90;;;;;;5051942;28;20192;-73
2023/05/24 04:23:05;;;;;;;7.10;5.43;;;8.20;99.90;;;;;;5051764;28;20188;-73
2023/05/24 04:25:32;;;;;;;9.00;4.63;;;8.20;99.90;;;;;;5033939;28;20416;-73
2023/05/24 04:27:59;;;;;;;14.13;5.90;;;8.20;99.90;;;;;;5051817;28;20820;-73
2023/05/24 04:30:25;;;;;;;10.50;4.80;;;8.20;99.90;;;;;;5051778;28;20413;-73
2023/05/24 04:32:50;;;;;;;6.73;4.13;;;8.30;99.90;;;;;;5051649;28;20416;-73
2023/05/24 04:35:17;;;;;;;13.63;5.50;;;8.30;99.90;;;;;;5051765;28;20416;-73
2023/05/24 04:37:43;;;;;;;10.37;4.90;;;8.40;99.90;;;;;;5051473;28;20622;-73
2023/05/24 04:40:09;;;;;;;11.13;4.40;;;8.50;99.90;;;;;;5050412;28;20423;-73
2023/05/24 04:42:35;;;;;;;10.77;4.97;;;8.50;99.90;;;;;;5049951;28;20773;-73
2023/05/24 04:45:01;;;;;;;9.87;4.50;;;8.60;99.90;;;;;;5050943;28;20416;-73
2023/05/24 04:47:27;;;;;;;13.67;5.00;;;8.70;99.90;;;;;;5051861;28;20456;-73
2023/05/24 04:49:53;;;;;;;9.97;4.60;;;8.70;99.90;;;;;;5051350;28;20212;-73
2023/05/24 04:52:18;;;;;;;11.47;4.93;;;8.80;99.90;;;;;;5033560;28;20988;-73
2023/05/24 04:54:44;;;;;;;10.57;5.33;;;8.80;99.90;;;;;;5030916;28;20464;-73
2023/05/24 04:57:10;;;;;;;10.43;5.53;;;8.90;99.90;;;;;;5050929;28;20284;-73
2023/05/24 04:59:36;;;;;;;14.83;6.30;;;9.00;99.90;;;;;;5051413;28;20212;-74
2023/05/24 05:02:01;;;;;;;9.13;6.10;;;9.00;99.90;;;;;;5043856;28;21022;-74
2023/05/24 05:04:27;;;;;;;16.20;5.67;;;9.00;99.90;;;;;;5045632;28;20280;-74
2023/05/24 05:06:54;;;;;;;11.50;6.17;;;9.10;99.90;;;;;;5032091;28;20209;-74
2023/05/24 05:09:20;;;;;;;13.07;4.80;;;9.10;99.90;;;;;;5032726;28;20216;-74
2023/05/24 05:11:47;;;;;;;12.50;5.30;;;9.20;99.90;;;;;;5049971;28;20433;-74
2023/05/24 05:14:13;;;;;;;7.57;4.83;;;9.20;99.90;;;;;;5050474;28;20223;-74
2023/05/24 05:16:40;;;;;;;12.70;5.40;;;9.30;99.90;;;;;;5048750;28;20539;-74
2023/05/24 05:19:05;;;;;;;17.03;6.60;;;9.30;99.90;;;;;;5050269;28;20412;-73
2023/05/24 05:21:32;;;;;;;16.20;5.57;;;9.30;99.90;;;;;;5050814;28;20738;-73
2023/05/24 05:23:58;;;;;;;15.33;5.70;;;9.40;99.90;;;;;;5050012;28;20470;-73
2023/05/24 05:26:25;;;;;;;14.53;5.43;;;9.30;99.90;;;;;;5050897;28;20924;-73
2023/05/24 05:28:51;;;;;;;11.50;5.50;;;9.30;99.90;;;;;;5050495;28;20824;-73
2023/05/24 05:31:17;;;;;;;16.90;6.20;;;9.30;99.90;;;;;;5049722;28;20423;-73
2023/05/24 05:33:43;;;;;;;12.63;5.60;;;9.40;99.90;;;;;;5050306;28;20177;-73
2023/05/24 05:36:08;;;;;;;16.10;5.77;;;9.40;99.90;;;;;;5030577;28;20213;-73
2023/05/24 05:38:34;;;;;;;15.60;6.53;;;9.50;99.90;;;;;;5049973;28;20246;-73
2023/05/24 05:41:00;;;;;;;18.80;6.50;;;9.60;99.90;;;;;;5050232;28;20542;-73
2023/05/24 05:43:25;;;;;;;14.67;6.50;;;9.60;99.90;;;;;;5050275;28;20178;-73
2023/05/24 05:45:51;;;;;;;15.50;6.40;;;9.60;99.90;;;;;;5049939;28;20270;-73
2023/05/24 05:48:17;;;;;;;19.73;6.30;;;9.80;99.90;;;;;;5048088;28;20242;-73
2023/05/24 05:50:42;;;;;;;14.67;6.97;;;9.80;99.90;;;;;;5049930;28;20178;-72
2023/05/24 05:53:08;;;;;;;16.23;5.50;;;9.90;99.90;;;;;;5050089;28;20785;-72
2023/05/24 05:55:34;;;;;;;17.13;7.57;;;9.90;99.90;;;;;;5050322;28;20686;-72
2023/05/24 05:58:00;;;;;;;20.67;7.13;;;9.90;99.90;;;;;;5050065;28;20177;-73
2023/05/24 06:00:26;;;;;;;13.07;7.40;;;10.00;99.90;;;;;;5050105;28;20780;-72
2023/05/24 06:02:51;;;;;;;21.33;7.10;;;10.10;99.90;;;;;;5050207;28;20174;-72
2023/05/24 06:05:18;;;;;;;20.10;6.53;;;10.10;99.90;;;;;;5049516;28;20280;-72
2023/05/24 06:07:44;;;;;;;18.47;6.60;;;10.20;99.90;;;;;;5049687;28;20204;-72
2023/05/24 06:10:10;;;;;;;14.80;6.90;;;10.20;99.90;;;;;;5032271;28;20426;-72
2023/05/24 06:12:39;;;;;;;13.30;6.90;;;10.30;99.90;;;;;;5049968;28;20405;-72
2023/05/24 06:15:07;;;;;;;14.90;6.07;;;10.30;99.90;;;;;;5049868;28;20491;-72
2023/05/24 06:17:35;;;;;;;15.70;6.93;;;10.40;99.90;;;;;;5048828;28;20425;-72
2023/05/24 06:20:05;;;;;;;20.17;6.67;;;10.40;99.90;;;;;;5049504;28;20408;-73
2023/05/24 06:22:30;;;;;;;15.03;5.70;;;10.50;99.90;;;;;;5046968;28;20530;-72
2023/05/24 06:24:56;;;;;;;15.07;6.40;;;10.60;99.90;;;;;;5043697;28;20526;-72
2023/05/24 06:27:22;;;;;;;11.13;4.87;;;10.60;99.90;;;;;;5049009;28;20240;-72
2023/05/24 06:29:48;;;;;;;16.00;6.13;;;10.60;99.90;;;;;;5031245;28;20217;-73
2023/05/24 06:32:13;;;;;;;18.60;5.80;;;10.70;99.90;;;;;;5034574;28;20421;-73
2023/05/24 06:34:40;;;;;;;17.37;6.10;;;10.80;99.90;;;;;;5043155;28;20194;-73
2023/05/24 06:37:09;;;;;;;20.60;6.53;;;10.80;99.90;;;;;;5029234;28;20236;-73
2023/05/24 06:39:35;;;;;;;18.20;6.47;;;10.80;99.90;;;;;;5044752;28;20485;-73
2023/05/24 06:42:01;;;;;;;10.63;5.23;;;10.90;99.90;;;;;;5048912;28;20420;-72
2023/05/24 06:44:32;;;;;;;14.53;6.43;;;11.00;99.90;;;;;;5046802;28;20424;-72
2023/05/24 06:47:01;;;;;;;14.67;5.97;;;11.10;99.90;;;;;;5042424;28;20221;-73
2023/05/24 06:49:27;;;;;;;13.53;6.20;;;11.20;99.90;;;;;;5044595;28;20467;-73
2023/05/24 06:51:53;;;;;;;16.00;5.40;;;11.20;99.90;;;;;;5047845;28;20838;-73
2023/05/24 06:54:19;;;;;;;18.00;6.00;;;11.30;99.90;;;;;;5047533;28;20431;-73
2023/05/24 06:56:44;;;;;;;13.37;5.60;;;11.30;99.90;;;;;;5047480;28;20206;-73
2023/05/24 06:59:10;;;;;;;20.00;6.30;;;11.40;99.90;;;;;;5048010;28;20646;-73
2023/05/24 07:01:41;;;;;;;9.50;4.90;;;11.30;99.90;;;;;;5047820;28;20409;-73
2023/05/24 07:04:07;;;;;;;18.70;5.77;;;11.40;99.90;;;;;;5026806;28;20863;-73
2023/05/24 07:06:33;;;;;;;10.97;4.97;;;11.50;99.90;;;;;;5012845;28;20492;-73
2023/05/24 07:09:00;;;;;;;15.73;5.50;;;11.60;99.90;;;;;;5048609;28;20460;-72
2023/05/24 07:11:27;;;;;;;12.77;5.03;;;11.70;99.90;;;;;;5031323;28;20260;-73
2023/05/24 07:13:52;;;;;;;18.13;6.60;;;11.70;99.90;;;;;;5048807;28;20507;-73
2023/05/24 07:16:18;;;;;;;10.80;4.63;;;11.90;99.90;;;;;;5031300;28;20527;-73
2023/05/24 07:18:44;;;;;;;14.47;5.40;;;12.00;99.90;;;;;;5047143;28;20989;-73
2023/05/24 07:21:09;;;;;;;11.07;3.80;;;12.10;99.90;;;;;;5048926;28;20265;-72
2023/05/24 07:23:36;;;;;;;10.73;4.07;;;12.10;99.90;;;;;;5048300;28;20658;-73
2023/05/24 07:26:03;;;;;;;11.17;4.93;;;12.20;99.90;;;;;;5048949;28;20205;-73
2023/05/24 07:28:29;;;;;;;19.40;5.73;;;12.20;99.90;;;;;;5047961;28;20460;-73
2023/05/24 07:30:54;;;;;;;12.50;4.50;;;12.20;99.90;;;;;;5047689;28;20761;-73
2023/05/24 07:33:20;;;;;;;12.50;4.40;;;12.30;99.90;;;;;;5048379;28;20424;-73
2023/05/24 07:35:50;;;;;;;10.83;4.10;;;12.40;99.90;;;;;;5048385;28;20456;-73
2023/05/24 07:38:17;;;;;;;11.33;4.20;;;12.40;99.90;;;;;;5048355;28;20539;-73
2023/05/24 07:40:43;;;;;;;11.43;3.90;;;12.50;99.90;;;;;;5048250;28;20448;-73
2023/05/24 07:43:08;;;;;;;19.57;4.20;;;12.50;99.90;;;;;;5047946;28;20762;-73
2023/05/24 07:45:34;;;;;;;9.03;4.67;;;12.40;99.90;;;;;;5048152;28;20781;-73
2023/05/24 07:48:00;;;;;;;12.87;4.40;;;12.40;99.90;;;;;;5048238;28;20578;-73
2023/05/24 07:50:28;;;;;;;16.40;5.70;;;12.50;99.90;;;;;;5048008;28;20197;-73
2023/05/24 07:52:57;;;;;;;10.90;3.90;;;12.50;99.90;;;;;;5030702;28;20427;-73
2023/05/24 07:55:22;;;;;;;13.87;4.10;;;12.50;99.90;;;;;;5048061;28;20413;-73
2023/05/24 07:57:48;;;;;;;10.70;4.60;;;12.60;99.90;;;;;;5048336;28;20439;-73
2023/05/24 08:00:15;;;;;;;11.53;4.50;;;12.60;99.90;;;;;;5048174;28;20714;-73
2023/05/24 08:02:45;;;;;;;10.03;4.80;;;12.60;99.90;;;;;;5048401;28;20173;-73
2023/05/24 08:05:15;;;;;;;9.23;4.67;;;12.60;99.90;;;;;;5047943;28;20412;-73
2023/05/24 08:07:41;;;;;;;6.80;3.80;;;12.60;99.90;;;;;;5047881;28;20953;-73
2023/05/24 08:10:09;;;;;;;11.03;4.23;;;12.60;99.90;;;;;;5047877;28;20528;-73
2023/05/24 08:12:35;;;;;;;12.47;5.20;;;12.60;99.90;;;;;;5048383;28;21067;-73
2023/05/24 08:15:01;;;;;;;15.07;4.30;;;12.60;99.90;;;;;;5047914;28;20412;-73
2023/05/24 08:17:26;;;;;;;10.97;4.70;;;12.60;99.90;;;;;;5047966;28;20204;-72
2023/05/24 08:19:52;;;;;;;10.60;4.40;;;12.60;99.90;;;;;;5047805;28;20265;-73
2023/05/24 08:22:18;;;;;;;18.00;5.97;;;12.60;99.90;;;;;;5047902;28;20212;-73
2023/05/24 08:24:44;;;;;;;12.20;5.67;;;12.60;99.90;;;;;;5047154;28;20286;-73
2023/05/24 08:27:10;;;;;;;11.03;4.40;;;12.70;99.90;;;;;;5047650;28;21023;-73
2023/05/24 08:29:38;;;;;;;7.90;4.20;;;12.80;99.90;;;;;;5047620;28;20300;-72
2023/05/24 08:32:08;;;;;;;11.00;4.53;;;12.80;99.90;;;;;;5047823;28;20416;-73
2023/05/24 08:34:35;;;;;;;12.83;4.97;;;12.70;99.90;;;;;;5030110;28;20772;-73
2023/05/24 08:37:02;;;;;;;15.17;4.97;;;12.70;99.90;;;;;;5047588;28;20967;-73
2023/05/24 08:39:27;;;;;;;10.33;5.43;;;12.70;99.90;;;;;;5047637;28;20968;-73
2023/05/24 08:41:54;;;;;;;12.10;5.87;;;12.70;99.90;;;;;;5030185;28;20419;-73
2023/05/24 08:44:21;;;;;;;10.23;4.90;;;12.60;99.90;;;;;;5047786;28;20691;-73
2023/05/24 08:46:49;;;;;;;9.07;5.13;;;12.60;99.90;;;;;;5047791;28;20554;-73
2023/05/24 08:49:15;;;;;;;19.23;6.90;;;12.60;99.90;;;;;;5047918;28;20536;-72
2023/05/24 08:51:43;;;;;;;11.47;5.20;;;12.60;99.90;;;;;;5029903;28;20407;-73
2023/05/24 08:54:13;;;;;;;11.27;5.33;;;12.60;99.90;;;;;;5047881;28;20781;-73
2023/05/24 08:56:40;;;;;;;12.33;6.07;;;12.60;99.90;;;;;;5051424;28;20517;-73
2023/05/24 08:59:07;;;;;;;13.50;6.50;;;12.70;99.90;;;;;;5051440;28;20478;-73
2023/05/24 09:01:35;;;;;;;15.90;6.67;;;12.70;99.90;;;;;;5051360;28;20523;-73
2023/05/24 09:04:03;;;;;;;8.30;5.37;;;12.80;99.90;;;;;;5042103;28;20440;-73
2023/05/24 09:06:29;;;;;;;12.03;5.20;;;12.90;99.90;;;;;;5025680;28;20558;-73
2023/05/24 09:08:57;;;;;;;9.87;5.20;;;13.00;99.90;;;;;;5049120;28;20471;-73
2023/05/24 09:11:24;;;;;;;9.80;5.30;;;12.90;99.90;;;;;;5050800;28;20427;-73
2023/05/24 09:13:50;;;;;;;15.30;7.37;;;12.90;99.90;;;;;;5033124;28;20408;-72
2023/05/24 09:16:16;;;;;;;16.50;5.97;;;12.90;99.90;;;;;;5051146;28;20443;-73
2023/05/24 09:18:42;;;;;;;10.20;5.73;;;12.90;99.90;;;;;;5048314;28;20788;-73
2023/05/24 09:21:10;;;;;;;15.30;6.10;;;12.80;99.90;;;;;;5050791;28;20310;-73
2023/05/24 09:23:36;;;;;;;14.53;5.43;;;12.90;99.90;;;;;;5050848;28;20578;-73
2023/05/24 09:26:09;;;;;;;13.50;6.60;;;13.00;99.90;;;;;;5051378;28;20436;-72
2023/05/24 09:28:36;;;;;;;16.53;6.10;;;13.10;99.90;;;;;;5033412;28;20222;-73
2023/05/24 09:31:03;;;;;;;12.57;5.80;;;13.20;99.90;;;;;;5050956;28;20440;-72
2023/05/24 09:33:32;;;;;;;13.10;6.43;;;13.30;99.90;;;;;;5051036;28;20428;-73
2023/05/24 09:36:00;;;;;;;12.50;5.57;;;13.30;99.90;;;;;;5051042;28;20463;-73
2023/05/24 09:38:27;;;;;;;15.73;6.23;;;13.30;99.90;;;;;;5050754;28;20419;-74
2023/05/24 09:41:03;;;;;;;15.77;5.00;;;13.30;99.90;;;;;;5050853;28;20427;-73
2023/05/24 09:43:31;;;;;;;12.13;5.43;;;13.40;99.90;;;;;;5050658;28;20810;-73
2023/05/24 09:45:58;;;;;;;13.87;5.60;;;13.40;99.90;;;;;;5050822;28;20455;-73
2023/05/24 09:48:25;;;;;;;9.90;5.00;;;13.40;99.90;;;;;;5050584;28;20467;-73
2023/05/24 09:51:17;;;;;;;14.20;4.80;;;13.50;99.90;;;;;;5050615;28;20448;-72
2023/05/24 09:53:45;;;;;;;12.63;4.40;;;13.40;99.90;;;;;;5046982;28;20901;-73
2023/05/24 09:56:12;;;;;;;14.70;6.37;;;13.40;99.90;;;;;;5050554;28;20439;-73
2023/05/24 09:58:38;;;;;;;22.10;4.80;;;13.40;99.90;;;;;;5050502;28;20417;-73
2023/05/24 10:01:11;;;;;;;13.40;4.20;;;13.40;99.90;;;;;;5050257;28;20702;-73
2023/05/24 10:03:37;;;;;;;12.50;4.03;;;13.20;99.90;;;;;;5050169;28;20424;-73
2023/05/24 10:06:06;;;;;;;6.30;3.80;;;13.30;99.90;;;;;;5047535;28;20437;-73
2023/05/24 10:08:35;;;;;;;9.87;4.60;;;13.30;99.90;;;;;;5050204;28;20492;-73
2023/05/24 10:11:04;;;;;;;9.80;4.53;;;13.40;99.90;;;;;;5050243;28;20413;-73
2023/05/24 10:13:35;;;;;;;14.40;4.07;;;13.50;99.90;;;;;;5050091;28;20412;-73
2023/05/24 10:16:02;;;;;;;10.80;5.00;;;13.50;99.90;;;;;;5050370;28;20842;-73
2023/05/24 10:18:28;;;;;;;9.97;4.37;;;13.60;99.90;;;;;;5048426;28;20475;-73
2023/05/24 10:20:58;;;;;;;9.37;4.00;;;13.60;99.90;;;;;;5050094;28;20768;-73
2023/05/24 10:23:28;;;;;;;11.77;3.83;;;13.60;99.90;;;;;;5049804;28;20489;-73
2023/05/24 10:26:10;;;;;;;12.97;4.20;;;13.70;99.90;;;;;;5050125;28;20423;-73
2023/05/24 10:28:41;;;;;;;9.30;3.63;;;13.70;99.90;;;;;;5031763;28;20544;-73
2023/05/24 10:31:13;;;;;;;8.23;3.87;;;13.70;99.90;;;;;;5046724;28;20812;-73
2023/05/24 10:33:41;;;;;;;10.97;3.80;;;13.70;99.90;;;;;;5048721;28;20460;-73
2023/05/24 10:36:09;;;;;;;9.13;3.53;;;13.70;99.90;;;;;;5049327;28;20436;-73
2023/05/24 10:38:38;;;;;;;7.17;3.80;;;13.70;99.90;;;;;;5049102;28;20466;-73
2023/05/24 10:41:04;;;;;;;10.80;4.67;;;13.60;99.90;;;;;;5049163;28;20438;-73
2023/05/24 10:43:30;;;;;;;13.77;5.57;;;13.60;99.90;;;;;;5049135;28;20980;-73
2023/05/24 10:45:57;;;;;;;13.90;3.40;;;13.50;99.90;;;;;;5049272;28;20456;-73
2023/05/24 10:48:23;;;;;;;9.73;4.03;;;13.50;99.90;;;;;;5049180;28;20244;-73
2023/05/24 10:50:49;;;;;;;10.23;3.70;;;13.60;99.90;;;;;;5049230;28;20452;-73
2023/05/24 10:53:17;;;;;;;13.07;4.60;;;13.60;99.90;;;;;;5048977;28;20792;-73
2023/05/24 10:55:56;;;;;;;7.53;3.57;;;13.60;99.90;;;;;;5031356;28;20604;-73
2023/05/24 10:58:42;;;;;;;13.13;4.60;;;13.60;99.90;;;;;;5048705;28;20427;-73
2023/05/24 11:01:32;;;;;;;6.17;2.83;;;13.60;99.90;;;;;;5045230;28;20481;-73
2023/05/24 11:04:17;;;;;;;11.07;4.50;;;13.60;99.90;;;;;;5049021;28;20431;-73
2023/05/24 11:06:54;;;;;;;9.37;3.97;;;13.60;99.90;;;;;;5029996;28;20440;-74
2023/05/24 11:09:21;;;;;;;6.77;4.03;;;13.70;99.90;;;;;;5048889;28;20960;-73
2023/05/24 11:11:48;;;;;;;8.57;3.90;;;13.70;99.90;;;;;;5049140;28;20470;-73
2023/05/24 11:14:28;;;;;;;13.37;4.43;;;13.80;99.90;;;;;;5048815;28;20448;-73
2023/05/24 11:16:54;;;;;;;10.50;4.80;;;13.90;99.90;;;;;;5041064;28;20439;-73
2023/05/24 11:19:20;;;;;;;12.70;4.37;;;14.00;99.90;;;;;;5048816;28;20435;-73
2023/05/24 11:21:48;;;;;;;9.37;4.00;;;14.00;99.90;;;;;;5048877;28;20416;-73
2023/05/24 11:24:16;;;;;;;7.27;3.67;;;14.00;99.90;;;;;;5048457;28;20436;-74
2023/05/24 11:26:43;;;;;;;9.10;3.87;;;14.10;99.90;;;;;;5048757;28;20444;-73
2023/05/24 11:29:08;;;;;;;8.57;4.30;;;14.10;99.90;;;;;;5048481;28;20502;-73
2023/05/24 11:31:38;;;;;;;9.83;3.77;;;14.10;99.90;;;;;;5048678;28;20472;-73
2023/05/24 11:34:05;;;;;;;12.13;4.33;;;14.10;99.90;;;;;;5042024;28;20265;-73
2023/05/24 11:36:32;;;;;;;10.17;4.70;;;14.10;99.90;;;;;;5045761;28;20860;-73
2023/05/24 11:38:57;;;;;;;9.40;4.57;;;14.10;99.90;;;;;;5030606;28;20420;-74
2023/05/24 11:41:23;;;;;;;11.37;3.83;;;14.10;99.90;;;;;;5048661;28;20802;-73
2023/05/24 11:43:49;;;;;;;7.50;3.83;;;14.00;99.90;;;;;;5041124;28;20268;-73
2023/05/24 11:46:18;;;;;;;11.37;4.87;;;14.00;99.90;;;;;;5048389;28;20213;-73
2023/05/24 11:48:52;;;;;;;7.63;3.57;;;14.00;99.90;;;;;;5029419;28;20205;-73
2023/05/24 11:51:18;;;;;;;12.53;4.77;;;13.90;99.90;;;;;;5048612;28;20924;-74
2023/05/24 11:53:44;;;;;;;12.03;4.17;;;13.90;99.90;;;;;;5048672;28;20423;-74
2023/05/24 11:56:10;;;;;;;9.60;4.10;;;13.90;99.90;;;;;;5048811;28;20221;-73
2023/05/24 11:58:49;;;;;;;9.00;4.17;;;13.90;99.90;;;;;;5048459;28;20479;-73
2023/05/24 12:01:26;;;;;;;13.50;5.80;;;13.90;99.90;;;;;;5030673;28;20814;-73
2023/05/24 12:03:53;;;;;;;15.13;4.47;;;13.90;99.90;;;;;;5048462;28;20913;-74
2023/05/24 12:06:20;;;;;;;9.77;4.63;;;13.90;99.90;;;;;;5047153;28;20955;-73
2023/05/24 12:08:46;;;;;;;11.93;4.60;;;13.90;99.90;;;;;;5030238;28;20583;-73
2023/05/24 12:11:12;;;;;;;13.60;5.10;;;13.90;99.90;;;;;;5048389;28;20451;-73
2023/05/24 12:13:39;;;;;;;9.00;4.43;;;13.90;99.90;;;;;;5048289;28;20412;-73
2023/05/24 12:16:06;;;;;;;9.10;4.73;;;13.90;99.90;;;;;;5048695;28;20439;-73
2023/05/24 12:18:32;;;;;;;11.87;4.37;;;13.80;99.90;;;;;;5048457;28;20427;-73
2023/05/24 12:20:57;;;;;;;9.27;4.67;;;13.80;99.90;;;;;;5048486;28;20424;-73
2023/05/24 12:23:27;;;;;;;9.93;5.27;;;13.80;99.90;;;;;;5048074;28;20428;-73
2023/05/24 12:26:00;;;;;;;15.90;4.73;;;13.80;99.90;;;;;;5014397;28;20237;-73
2023/05/24 12:28:26;;;;;;;7.30;3.83;;;13.90;99.90;;;;;;5048183;28;20968;-73
2023/05/24 12:30:52;;;;;;;12.70;4.23;;;14.00;99.90;;;;;;5033562;28;20404;-73
2023/05/24 12:33:19;;;;;;;8.97;4.23;;;14.00;99.90;;;;;;5051901;28;20420;-74
2023/05/24 12:35:46;;;;;;;9.27;4.03;;;14.00;99.90;;;;;;5052375;28;20281;-73
2023/05/24 12:38:12;;;;;;;15.13;4.80;;;14.00;99.90;;;;;;5051863;28;20396;-74
2023/05/24 12:40:42;;;;;;;9.77;4.70;;;13.90;99.90;;;;;;5034322;28;20504;-73
2023/05/24 12:43:09;;;;;;;10.60;5.13;;;14.00;99.90;;;;;;5033739;28;20243;-73
2023/05/24 12:45:36;;;;;;;13.63;4.30;;;14.10;99.90;;;;;;5051974;28;20439;-73
2023/05/24 12:48:03;;;;;;;11.77;4.50;;;14.10;99.90;;;;;;5051560;28;20913;-73